createdAt,value
2023-04-22T00:06:35.139Z,26.20
2023-04-22T00:16:39.654Z,26.10
2023-04-22T00:27:13.855Z,26.10
2023-04-22T00:37:27.550Z,26.10
2023-04-22T00:47:36.671Z,26.10
2023-04-22T00:57:50.562Z,26.10
2023-04-22T01:07:59.658Z,26.10
2023-04-22T01:18:10.146Z,26.00
2023-04-22T01:40:54.368Z,26.20
2023-04-22T01:51:52.381Z,26.30
2023-04-22T02:02:06.853Z,26.50
2023-04-22T02:12:17.028Z,26.60
2023-04-22T02:22:26.538Z,26.70
2023-04-22T02:32:34.023Z,26.70
2023-04-22T02:42:42.882Z,26.80
2023-04-22T02:52:50.051Z,26.90
2023-04-22T03:02:59.088Z,26.90
2023-04-22T03:13:09.671Z,26.90
2023-04-22T03:23:18.529Z,26.80
2023-04-22T03:33:25.667Z,26.90
2023-04-22T03:43:44.378Z,26.90
2023-04-22T03:53:51.686Z,27.00
2023-04-22T04:04:03.795Z,27.10
2023-04-22T04:14:19.608Z,27.10
2023-04-22T04:24:30.045Z,27.10
2023-04-22T04:34:45.027Z,27.30
2023-04-22T04:44:59.425Z,27.30
2023-04-22T04:55:08.723Z,27.40
2023-04-22T05:05:17.625Z,27.40
2023-04-22T05:15:27.383Z,27.60
2023-04-22T05:25:36.682Z,27.60
2023-04-22T05:35:48.891Z,27.70
2023-04-22T05:45:57.831Z,27.70
2023-04-22T05:56:05.186Z,27.70
2023-04-22T06:06:14.866Z,27.70
2023-04-22T06:16:21.961Z,27.70
2023-04-22T06:26:34.244Z,27.70
2023-04-22T06:36:41.345Z,27.80
2023-04-22T06:46:50.309Z,27.70
2023-04-22T06:57:15.710Z,27.70
2023-04-22T07:07:26.339Z,27.70
2023-04-22T07:17:36.076Z,27.70
2023-04-22T07:27:47.648Z,27.70
2023-04-22T07:37:54.612Z,27.80
2023-04-22T07:48:04.974Z,27.80
2023-04-22T07:58:12.158Z,27.80
2023-04-22T08:08:21.545Z,27.80
2023-04-22T08:18:28.688Z,27.80
2023-04-22T08:28:46.753Z,27.80
2023-04-22T08:38:53.761Z,27.90
2023-04-22T08:49:05.814Z,27.90
2023-04-22T08:59:14.284Z,27.90
2023-04-22T09:09:25.759Z,27.90
2023-04-22T09:19:38.251Z,27.90
2023-04-22T09:41:26.713Z,27.90
2023-04-22T09:51:51.873Z,28.00
2023-04-22T10:02:09.331Z,28.00
2023-04-22T10:12:26.214Z,28.00
2023-04-22T10:22:46.909Z,28.00
2023-04-22T10:43:48.558Z,28.10
2023-04-22T10:53:58.182Z,28.10
2023-04-22T11:04:27.764Z,28.10
2023-04-22T11:14:38.102Z,28.10
2023-04-22T11:25:02.578Z,28.20
2023-04-22T11:35:14.435Z,28.20
2023-04-22T11:45:31.508Z,28.20
2023-04-22T11:55:46.763Z,28.20
2023-04-22T12:06:07.842Z,28.20
2023-04-22T12:16:26.776Z,28.20
2023-04-22T12:26:47.733Z,28.20
2023-04-22T12:36:57.625Z,28.30
2023-04-22T12:47:12.121Z,28.30
2023-04-22T12:57:22.693Z,28.30
2023-04-22T13:07:33.450Z,28.30
2023-04-22T13:17:47.167Z,28.30
2023-04-22T13:28:00.161Z,28.30
2023-04-22T13:38:12.694Z,28.30
2023-04-22T13:48:24.352Z,28.30
2023-04-22T13:58:33.644Z,28.30
2023-04-22T14:08:57.092Z,28.40
2023-04-22T14:19:30.308Z,28.40
2023-04-22T14:29:47.783Z,28.40
2023-04-22T14:39:55.690Z,28.40
2023-04-22T14:50:05.283Z,28.40
2023-04-22T15:00:13.670Z,28.40
2023-04-22T15:10:22.418Z,28.40
2023-04-22T15:20:29.479Z,28.40
2023-04-22T15:30:38.123Z,28.30
2023-04-22T15:40:45.710Z,28.30
2023-04-22T15:50:54.398Z,28.20
2023-04-22T16:01:15.298Z,28.30
2023-04-22T16:11:26.403Z,28.20
2023-04-22T16:21:33.970Z,28.20
2023-04-22T16:31:42.595Z,28.20
2023-04-22T16:41:50.169Z,28.30
2023-04-22T16:51:58.813Z,28.10
2023-04-22T17:02:06.392Z,28.00
2023-04-22T17:12:15.173Z,27.80
2023-04-22T17:22:22.288Z,27.70
2023-04-22T17:32:31.032Z,27.60
2023-04-22T17:42:45.753Z,27.50
2023-04-22T17:52:55.175Z,27.40
2023-04-22T18:03:02.690Z,27.30
2023-04-22T18:13:11.675Z,27.10
2023-04-22T18:23:18.743Z,27.00
2023-04-22T18:33:27.937Z,26.90
2023-04-22T18:43:35.540Z,26.80
2023-04-22T18:53:44.219Z,26.60
2023-04-22T19:03:51.521Z,26.40
2023-04-22T19:14:00.483Z,26.20
2023-04-22T19:24:07.593Z,26.00
2023-04-22T19:34:16.585Z,26.00
2023-04-22T19:44:24.045Z,26.00
2023-04-22T19:54:34.563Z,25.90
2023-04-22T20:04:42.240Z,25.90
2023-04-22T20:14:51.657Z,26.00
2023-04-22T20:25:05.316Z,26.00
2023-04-22T20:35:17.466Z,26.10
2023-04-22T20:45:25.657Z,26.10
2023-04-22T20:55:37.009Z,26.30
2023-04-22T21:05:46.598Z,26.30
2023-04-22T21:16:02.145Z,26.40
2023-04-22T21:26:10.662Z,26.50
2023-04-22T21:36:19.493Z,26.50
2023-04-22T21:46:27.238Z,26.50
2023-04-22T21:56:36.970Z,26.60
2023-04-22T22:06:46.778Z,26.60
2023-04-22T22:16:56.017Z,26.70
2023-04-22T22:27:06.375Z,26.70
2023-04-22T22:37:17.339Z,26.60
2023-04-22T22:47:27.508Z,26.50
2023-04-22T22:57:50.943Z,26.50
2023-04-22T23:07:57.902Z,26.50
2023-04-22T23:18:07.348Z,26.50
2023-04-22T23:28:15.002Z,26.50
2023-04-22T23:38:23.906Z,26.50
2023-04-22T23:48:31.508Z,26.50
2023-04-22T23:58:40.686Z,26.40
